Time;durP1;ratioP1;P1;durP2;ratioP2;P2;SDS_P1;SDS_P2;PMS_P1;PMS_P2;Temp;Humidity;BMP_temperature;BMP_pressure;BME280_temperature;BME280_humidity;BME280_pressure;Samples;Min_cycle;Max_cycle;Signal;HPM_P1;HPM_P2
2021/06/02 00:06:03;;;;;;;9.25;3.42;;;;;;;13.29;66.71;100056.25;20829385;28;20046;-77
2021/06/02 00:16:05;;;;;;;7.55;3.13;;;;;;;13.23;68.96;100056.66;20814290;28;20416;-77
2021/06/02 00:26:07;;;;;;;7.13;3.50;;;;;;;13.04;68.72;100043.13;20833858;28;20049;-76
2021/06/02 00:36:12;;;;;;;8.95;4.32;;;;;;;12.64;70.76;100053.75;20827098;28;20076;-76
2021/06/02 00:46:15;;;;;;;7.60;4.30;;;;;;;12.26;72.57;100052.84;20819434;28;20041;-75
2021/06/02 00:56:24;;;;;;;7.95;4.63;;;;;;;12.11;72.48;100048.63;20828721;28;20483;-77
2021/06/02 01:06:28;;;;;;;10.18;5.03;;;;;;;11.78;74.60;100052.53;20826467;28;20057;-77
2021/06/02 01:16:34;;;;;;;12.05;4.95;;;;;;;11.88;73.21;100051.00;20802525;28;20042;-76
2021/06/02 01:26:37;;;;;;;10.20;5.10;;;;;;;12.02;72.39;100049.25;20824563;28;20047;-75
2021/06/02 01:37:16;;;;;;;11.52;4.95;;;;;;;12.08;71.18;100040.97;20821267;28;20784;-76
2021/06/02 01:47:49;;;;;;;8.32;4.80;;;;;;;11.98;71.98;100044.22;20814805;28;20049;-76
2021/06/02 01:57:53;;;;;;;9.07;4.72;;;;;;;12.02;72.68;100046.63;20823114;28;20088;-76
2021/06/02 02:08:34;;;;;;;8.60;4.70;;;;;;;11.81;73.37;100041.84;20811815;28;20045;-76
2021/06/02 02:18:46;;;;;;;12.85;5.82;;;;;;;11.77;73.00;100039.50;20747953;28;20046;-75
2021/06/02 02:29:07;;;;;;;9.85;5.18;;;;;;;11.70;73.24;100052.13;20739275;28;20046;-76
2021/06/02 02:39:31;;;;;;;9.25;5.25;;;;;;;11.59;73.61;100051.97;20765336;28;20045;-77
2021/06/02 02:50:01;;;;;;;9.65;5.15;;;;;;;11.52;73.84;100055.94;20813286;28;20099;-76
2021/06/02 03:00:09;;;;;;;8.77;5.28;;;;;;;11.19;76.06;100061.50;20818798;28;20057;-76
2021/06/02 03:10:17;;;;;;;9.80;5.43;;;;;;;11.08;76.17;100070.03;20801092;28;20480;-76
2021/06/02 03:20:25;;;;;;;9.27;5.40;;;;;;;11.06;76.72;100085.00;20736474;28;20050;-76
2021/06/02 03:30:32;;;;;;;9.55;5.13;;;;;;;10.77;79.51;100093.75;20736631;28;20050;-77
2021/06/02 03:40:55;;;;;;;9.77;5.75;;;;;;;10.56;79.05;100097.69;20770656;28;20054;-75
2021/06/02 03:51:19;;;;;;;8.15;5.43;;;;;;;10.44;80.18;100101.00;20816960;28;20053;-76
2021/06/02 04:01:58;;;;;;;10.07;5.32;;;;;;;10.47;79.55;100098.19;20816447;28;20107;-76
2021/06/02 04:12:18;;;;;;;9.70;5.40;;;;;;;10.47;80.61;100101.66;20809910;28;20452;-77
2021/06/02 04:22:22;;;;;;;9.88;5.70;;;;;;;10.55;80.55;100106.47;20830499;28;20472;-77
2021/06/02 04:32:29;;;;;;;9.95;5.30;;;;;;;13.10;68.56;100119.75;20828571;28;20522;-77
2021/06/02 04:42:36;;;;;;;8.25;4.60;;;;;;;13.76;64.63;100121.22;20811649;28;20049;-76
2021/06/02 04:53:03;;;;;;;8.60;4.80;;;;;;;13.45;67.33;100140.97;20826342;28;20096;-75
2021/06/02 05:03:27;;;;;;;9.88;4.68;;;;;;;12.79;69.44;100147.25;20825499;28;20080;-77
2021/06/02 05:14:01;;;;;;;8.07;4.70;;;;;;;12.97;68.84;100160.91;20814165;28;20065;-76
2021/06/02 05:24:49;;;;;;;8.63;4.43;;;;;;;13.00;67.93;100173.88;20826160;28;20076;-76
2021/06/02 05:35:29;;;;;;;9.27;4.78;;;;;;;13.49;66.15;100184.50;20824623;28;20488;-77
2021/06/02 05:46:16;;;;;;;7.63;4.53;;;;;;;13.72;65.93;100182.88;20795857;28;20053;-77
2021/06/02 05:56:44;;;;;;;9.70;4.07;;;;;;;13.91;64.72;100185.06;20768088;28;20757;-76
2021/06/02 06:07:00;;;;;;;9.32;4.40;;;;;;;14.24;63.61;100173.88;20814112;28;20038;-76
2021/06/02 06:17:28;;;;;;;7.72;4.22;;;;;;;14.39;63.41;100180.69;20812387;28;20053;-76
2021/06/02 06:27:42;;;;;;;7.32;4.60;;;;;;;14.67;63.26;100167.16;20810382;28;20492;-76
2021/06/02 06:37:47;;;;;;;7.15;3.83;;;;;;;15.09;59.41;100164.84;20811367;28;20041;-77
2021/06/02 06:47:51;;;;;;;7.43;3.63;;;;;;;15.37;60.78;100177.59;20793412;28;20480;-76
2021/06/02 06:57:53;;;;;;;7.03;3.42;;;;;;;15.68;59.79;100190.13;20802385;28;20100;-77
2021/06/02 07:07:55;;;;;;;6.38;3.80;;;;;;;16.07;58.43;100186.09;20783007;28;20057;-77
2021/06/02 07:17:58;;;;;;;9.52;4.15;;;;;;;16.34;55.28;100182.19;20792095;28;20060;-77
2021/06/02 07:28:07;;;;;;;6.88;3.42;;;;;;;16.81;55.89;100181.75;20797896;28;20045;-77
2021/06/02 07:38:09;;;;;;;8.30;3.53;;;;;;;16.87;56.03;100178.63;20794518;28;20099;-76
2021/06/02 07:48:12;;;;;;;12.02;3.47;;;;;;;17.25;54.35;100193.06;20802636;28;20046;-76
2021/06/02 07:58:13;;;;;;;8.43;3.00;;;;;;;17.71;53.10;100200.56;20790559;28;20041;-78
2021/06/02 08:08:17;;;;;;;7.00;3.05;;;;;;;17.94;53.66;100200.22;20795789;28;20050;-78
2021/06/02 08:18:19;;;;;;;5.93;3.20;;;;;;;18.34;52.07;100201.97;20793168;28;20057;-78
2021/06/02 08:28:21;;;;;;;7.18;2.90;;;;;;;18.65;51.91;100210.69;20808785;28;20450;-78
2021/06/02 08:38:23;;;;;;;7.00;3.53;;;;;;;19.22;52.66;100226.56;20826416;28;20041;-78
2021/06/02 08:48:25;;;;;;;7.25;3.50;;;;;;;19.35;50.36;100220.94;20797271;28;20479;-78
2021/06/02 08:58:27;;;;;;;6.40;3.60;;;;;;;19.75;49.59;100230.50;20810253;28;20496;-78
2021/06/02 09:08:28;;;;;;;7.80;3.30;;;;;;;20.42;50.06;100224.81;20796414;28;20037;-78
2021/06/02 09:18:30;;;;;;;8.05;3.05;;;;;;;20.92;46.42;100203.88;20810435;28;20046;-78
2021/06/02 09:28:44;;;;;;;7.13;3.10;;;;;;;21.38;45.41;100210.72;20785963;28;20096;-78
2021/06/02 09:38:52;;;;;;;9.60;3.55;;;;;;;21.80;43.66;100202.78;20804023;28;20091;-77
2021/06/02 09:49:02;;;;;;;6.28;2.90;;;;;;;22.23;41.41;100208.97;20799863;28;20139;-78
2021/06/02 09:59:08;;;;;;;6.18;3.00;;;;;;;22.43;43.11;100210.34;20794122;28;20049;-78
2021/06/02 10:09:10;;;;;;;6.70;2.58;;;;;;;22.62;41.05;100202.03;20818498;28;20042;-78
2021/06/02 10:19:12;;;;;;;6.22;2.70;;;;;;;23.10;36.90;100213.75;20811946;28;20045;-76
2021/06/02 10:29:14;;;;;;;8.02;2.75;;;;;;;23.47;38.55;100195.34;20798558;28;20051;-77
2021/06/02 10:39:16;;;;;;;7.07;2.60;;;;;;;23.82;38.61;100208.25;20786537;28;20038;-78
2021/06/02 10:49:29;;;;;;;5.72;2.53;;;;;;;24.14;36.35;100203.78;20790336;28;20048;-78
2021/06/02 10:59:35;;;;;;;6.45;3.20;;;;;;;23.94;33.48;100195.34;20797975;28;20615;-77
2021/06/02 11:09:51;;;;;;;10.60;3.08;;;;;;;24.16;33.06;100196.44;20802098;28;20045;-78
2021/06/02 11:19:55;;;;;;;8.48;2.35;;;;;;;24.18;31.85;100195.25;20799609;28;20424;-78
2021/06/02 11:29:57;;;;;;;;;;;;;;;24.31;30.98;100197.38;20818472;28;20107;-78
2021/06/02 11:40:05;;;;;;;5.07;2.20;;;;;;;24.32;27.72;100196.38;20819567;28;20294;-78
2021/06/02 11:50:09;;;;;;;7.43;2.10;;;;;;;24.74;29.94;100189.72;20810559;28;20053;-77
2021/06/02 12:00:17;;;;;;;5.68;2.28;;;;;;;24.85;30.38;100200.00;20827215;28;20050;-80
2021/06/02 12:10:20;;;;;;;4.40;2.03;;;;;;;25.15;29.71;100188.38;20842715;28;20056;-80
2021/06/02 12:20:24;;;;;;;4.97;2.47;;;;;;;25.31;30.10;100185.53;20788349;28;20042;-80
2021/06/02 12:30:33;;;;;;;4.95;2.22;;;;;;;25.31;30.69;100177.50;20822083;28;20107;-79
2021/06/02 12:40:40;;;;;;;3.85;2.33;;;;;;;25.42;31.77;100173.53;20826684;28;20054;-79
2021/06/02 12:50:47;;;;;;;5.10;2.43;;;;;;;25.28;32.26;100175.19;20796710;28;20053;-79
2021/06/02 13:00:49;;;;;;;4.78;2.03;;;;;;;25.55;30.39;100171.88;20834609;28;20042;-80
2021/06/02 13:10:51;;;;;;;5.57;1.90;;;;;;;25.70;30.99;100173.75;20788694;28;20053;-80
2021/06/02 13:20:55;;;;;;;10.27;2.33;;;;;;;26.04;29.23;100171.28;20832785;28;20073;-79
2021/06/02 13:30:59;;;;;;;4.13;1.60;;;;;;;25.99;28.79;100168.34;20833041;28;20091;-80
2021/06/02 13:41:02;;;;;;;5.10;2.10;;;;;;;26.28;28.78;100162.91;20795965;28;20063;-81
2021/06/02 13:51:32;;;;;;;3.47;1.98;;;;;;;26.35;28.46;100155.78;20780490;28;20107;-80
2021/06/02 14:01:35;;;;;;;5.18;1.90;;;;;;;26.56;28.66;100156.81;20817602;28;20053;-81
2021/06/02 14:11:37;;;;;;;4.88;2.03;;;;;;;26.41;28.77;100153.34;20788807;28;20520;-81
2021/06/02 14:21:39;;;;;;;3.83;1.83;;;;;;;26.39;27.24;100146.31;20810561;28;20411;-80
2021/06/02 14:31:43;;;;;;;4.57;2.35;;;;;;;26.83;28.12;100147.94;20842530;28;20092;-81
2021/06/02 14:41:47;;;;;;;4.35;2.65;;;;;;;26.78;28.96;100142.31;20869112;23;20045;-74
2021/06/02 14:51:48;;;;;;;3.08;1.77;;;;;;;27.06;26.88;100139.69;20890052;28;20040;-73
2021/06/02 15:01:50;;;;;;;5.72;1.95;;;;;;;26.54;30.16;100140.06;20885743;28;20045;-74
2021/06/02 15:11:52;;;;;;;4.47;2.17;;;;;;;25.94;30.99;100138.56;20890685;28;20095;-73
2021/06/02 15:21:55;;;;;;;6.07;1.90;;;;;;;26.50;28.73;100136.09;20877674;28;20094;-73
2021/06/02 15:31:56;;;;;;;5.72;1.80;;;;;;;27.67;28.60;100129.13;20884210;28;20037;-73
2021/06/02 15:42:00;;;;;;;5.78;1.83;;;;;;;27.45;27.45;100123.81;20885389;28;20107;-73
2021/06/02 15:52:15;;;;;;;2.97;1.80;;;;;;;27.46;28.96;100124.63;20866444;28;20041;-74
2021/06/02 16:02:17;;;;;;;4.37;2.30;;;;;;;26.74;28.81;100112.34;20884115;28;20033;-73
2021/06/02 16:12:19;;;;;;;7.65;2.25;;;;;;;27.85;28.41;100124.00;20855570;28;20107;-73
2021/06/02 16:22:25;;;;;;;7.57;2.63;;;;;;;27.76;29.45;100123.34;20882519;28;20080;-72
2021/06/02 16:32:30;;;;;;;5.13;2.00;;;;;;;28.20;27.49;100122.88;20880819;28;20137;-73
2021/06/02 16:42:32;;;;;;;12.65;3.55;;;;;;;27.20;29.29;100122.63;20862566;28;20048;-72
2021/06/02 16:52:34;;;;;;;3.90;2.00;;;;;;;26.83;29.96;100129.13;20889708;28;20096;-72
2021/06/02 17:02:35;;;;;;;5.50;2.05;;;;;;;26.14;31.39;100136.94;20901011;28;20048;-72
2021/06/02 17:12:38;;;;;;;5.00;2.50;;;;;;;25.85;31.90;100140.50;20907749;28;20430;-71
2021/06/02 17:22:44;;;;;;;5.75;1.92;;;;;;;26.55;30.43;100147.09;20876140;28;20046;-72
2021/06/02 17:32:48;;;;;;;4.55;2.38;;;;;;;26.22;31.29;100157.47;20904442;28;20048;-72
2021/06/02 17:42:51;;;;;;;3.80;2.13;;;;;;;26.06;32.23;100163.06;20873311;28;20045;-72
2021/06/02 17:52:56;;;;;;;4.65;1.90;;;;;;;25.55;34.58;100171.88;20907899;28;20053;-72
2021/06/02 18:02:59;;;;;;;4.10;2.15;;;;;;;25.15;35.02;100174.97;20907327;28;20041;-72
2021/06/02 18:13:03;;;;;;;3.47;2.00;;;;;;;24.66;36.50;100194.13;20859694;28;20057;-72
2021/06/02 18:23:05;;;;;;;3.67;1.80;;;;;;;24.21;37.60;100204.78;20834537;28;20046;-72
2021/06/02 18:33:09;;;;;;;4.07;2.28;;;;;;;23.92;37.57;100209.94;20868360;28;20294;-71
2021/06/02 18:43:13;;;;;;;6.35;2.17;;;;;;;23.75;40.48;100223.34;20886675;28;20479;-73
2021/06/02 18:53:14;;;;;;;;;;;;;;;23.16;44.19;100227.25;20904545;28;20049;-70
2021/06/02 19:03:17;;;;;;;4.72;2.50;;;;;;;22.80;45.61;100241.97;20837184;28;20363;-72
2021/06/02 19:13:21;;;;;;;7.07;2.40;;;;;;;22.42;45.64;100254.84;20844366;28;20518;-72
2021/06/02 19:23:23;;;;;;;8.10;3.10;;;;;;;22.22;47.06;100279.28;20886267;28;20498;-73
2021/06/02 19:33:25;;;;;;;4.60;2.63;;;;;;;21.77;48.10;100291.88;20841181;28;20487;-72
2021/06/02 19:43:27;;;;;;;5.05;2.83;;;;;;;21.65;48.42;100308.28;20826300;28;20100;-71
2021/06/02 19:53:29;;;;;;;6.50;3.20;;;;;;;21.48;49.48;100333.13;20835122;28;20053;-73
2021/06/02 20:03:31;;;;;;;6.88;3.80;;;;;;;21.56;49.59;100352.66;20894150;28;20098;-76
2021/06/02 20:13:33;;;;;;;6.28;3.50;;;;;;;21.65;49.06;100383.69;20891563;28;20561;-72
2021/06/02 20:23:39;;;;;;;6.55;4.20;;;;;;;21.50;51.73;100390.56;20879866;28;20052;-71
2021/06/02 20:33:41;;;;;;;6.43;3.67;;;;;;;21.31;53.81;100396.91;20887503;28;20087;-72
2021/06/02 20:43:44;;;;;;;7.15;4.40;;;;;;;21.37;56.47;100408.78;20915201;28;20520;-70
2021/06/02 20:53:46;;;;;;;5.10;3.05;;;;;;;21.26;57.06;100428.47;20912989;28;20049;-72
2021/06/02 21:03:48;;;;;;;7.45;3.47;;;;;;;21.15;56.79;100436.66;20902762;28;20440;-71
2021/06/02 21:13:49;;;;;;;6.82;3.90;;;;;;;20.96;58.00;100442.09;20883933;28;20057;-71
2021/06/02 21:23:51;;;;;;;7.82;3.28;;;;;;;20.84;58.75;100445.91;20827165;28;20488;-73
2021/06/02 21:33:53;;;;;;;4.47;2.47;;;;;;;20.73;59.23;100459.41;20894290;28;20102;-71
2021/06/02 21:43:54;;;;;;;8.35;4.68;;;;;;;20.48;60.13;100472.38;20908950;28;20045;-71
2021/06/02 21:53:56;;;;;;;5.95;2.80;;;;;;;20.35;60.89;100487.81;20908588;28;20458;-72
2021/06/02 22:03:58;;;;;;;5.03;3.00;;;;;;;20.06;61.78;100490.47;20852102;28;20458;-71
2021/06/02 22:14:00;;;;;;;6.82;2.92;;;;;;;19.96;61.94;100491.50;20842783;28;20053;-71
2021/06/02 22:24:02;;;;;;;4.32;2.80;;;;;;;19.79;62.63;100497.50;20904179;28;20098;-72
2021/06/02 22:34:04;;;;;;;4.88;2.50;;;;;;;19.89;61.54;100501.84;20893745;28;20045;-71
2021/06/02 22:44:05;;;;;;;7.05;2.72;;;;;;;19.97;61.26;100503.78;20902025;28;20044;-71
2021/06/02 22:54:07;;;;;;;4.95;2.42;;;;;;;19.86;61.53;100502.09;20901378;28;20130;-71
2021/06/02 23:04:09;;;;;;;5.43;2.88;;;;;;;19.91;61.77;100510.47;20891791;28;20060;-72
2021/06/02 23:14:10;;;;;;;6.03;3.20;;;;;;;19.83;62.11;100499.72;20900902;28;20049;-73
2021/06/02 23:24:12;;;;;;;5.25;3.15;;;;;;;19.67;63.10;100501.25;20916945;28;20045;-71
2021/06/02 23:34:14;;;;;;;6.20;3.22;;;;;;;19.39;64.60;100510.84;20907871;28;20465;-71
2021/06/02 23:44:16;;;;;;;4.43;2.83;;;;;;;18.99;66.70;100508.22;20898027;28;20438;-72
2021/06/02 23:54:18;;;;;;;7.32;4.47;;;;;;;18.78;67.59;100517.06;20914665;28;20052;-71
